createdAt,value
2019-06-26T00:00:38.985Z,21.70
2019-06-26T00:03:06.070Z,21.70
2019-06-26T00:05:33.505Z,21.70
2019-06-26T00:08:00.694Z,21.60
2019-06-26T00:10:27.721Z,21.60
2019-06-26T00:12:54.782Z,21.60
2019-06-26T00:15:21.855Z,21.60
2019-06-26T00:17:48.834Z,21.60
2019-06-26T00:20:16.251Z,21.60
2019-06-26T00:22:43.319Z,21.50
2019-06-26T00:25:10.334Z,21.50
2019-06-26T00:27:38.437Z,21.50
2019-06-26T00:30:06.357Z,21.50
2019-06-26T00:32:35.983Z,21.50
2019-06-26T00:35:04.533Z,21.50
2019-06-26T00:37:31.715Z,21.50
2019-06-26T00:39:58.714Z,21.40
2019-06-26T00:42:25.711Z,21.40
2019-06-26T00:44:52.760Z,21.30
2019-06-26T00:47:19.806Z,21.30
2019-06-26T00:49:46.806Z,21.30
2019-06-26T00:52:13.881Z,21.40
2019-06-26T00:54:40.901Z,21.40
2019-06-26T00:57:07.909Z,21.40
2019-06-26T00:59:35.376Z,21.40
2019-06-26T01:02:02.362Z,21.40
2019-06-26T01:04:43.234Z,21.50
2019-06-26T01:07:10.287Z,21.50
2019-06-26T01:09:37.889Z,21.50
2019-06-26T01:12:04.958Z,21.50
2019-06-26T01:14:32.614Z,21.50
2019-06-26T01:16:59.653Z,21.50
2019-06-26T01:19:26.764Z,21.40
2019-06-26T01:21:53.787Z,21.50
2019-06-26T01:24:20.912Z,21.40
2019-06-26T01:26:48.010Z,21.40
2019-06-26T01:29:15.035Z,21.40
2019-06-26T01:31:42.337Z,21.40
2019-06-26T01:34:10.918Z,21.40
2019-06-26T01:36:37.930Z,21.40
2019-06-26T01:39:05.040Z,21.40
2019-06-26T01:41:32.113Z,21.50
2019-06-26T01:44:13.760Z,21.50
2019-06-26T01:46:27.999Z,21.40
2019-06-26T01:48:55.059Z,21.40
2019-06-26T01:51:22.056Z,21.40
2019-06-26T01:53:49.092Z,21.40
2019-06-26T01:56:16.193Z,21.50
2019-06-26T01:58:43.201Z,21.50
2019-06-26T02:01:10.224Z,21.60
2019-06-26T02:03:37.454Z,21.70
2019-06-26T02:06:05.018Z,21.70
2019-06-26T02:08:32.026Z,21.70
2019-06-26T02:10:59.110Z,21.70
2019-06-26T02:13:26.220Z,21.70
2019-06-26T02:15:53.251Z,21.70
2019-06-26T02:18:36.800Z,21.70
2019-06-26T02:21:03.985Z,21.70
2019-06-26T02:23:31.178Z,21.70
2019-06-26T02:25:58.283Z,21.60
2019-06-26T02:28:25.292Z,21.70
2019-06-26T02:30:52.308Z,21.60
2019-06-26T02:33:19.336Z,21.60
2019-06-26T02:35:48.503Z,21.60
2019-06-26T02:38:15.631Z,21.60
2019-06-26T02:40:42.713Z,21.60
2019-06-26T02:43:09.739Z,21.60
2019-06-26T02:45:36.777Z,21.60
2019-06-26T02:48:04.972Z,21.70
2019-06-26T02:50:31.987Z,21.60
2019-06-26T02:52:59.008Z,21.60
2019-06-26T02:55:28.482Z,21.60
2019-06-26T02:57:55.534Z,21.60
2019-06-26T03:00:22.539Z,21.60
2019-06-26T03:02:49.607Z,21.50
2019-06-26T03:05:16.595Z,21.50
2019-06-26T03:07:43.658Z,21.40
2019-06-26T03:10:11.813Z,21.40
2019-06-26T03:12:38.809Z,21.40
2019-06-26T03:15:09.223Z,21.40
2019-06-26T03:17:35.644Z,21.50
2019-06-26T03:20:06.166Z,21.50
2019-06-26T03:22:33.192Z,21.70
2019-06-26T03:25:00.224Z,21.80
2019-06-26T03:27:27.655Z,21.90
2019-06-26T03:29:54.653Z,21.90
2019-06-26T03:32:22.167Z,22.00
2019-06-26T03:34:49.222Z,22.00
2019-06-26T03:37:18.104Z,22.10
2019-06-26T03:39:45.210Z,22.10
2019-06-26T03:42:12.228Z,22.20
2019-06-26T03:44:39.199Z,22.20
2019-06-26T03:47:06.230Z,22.20
2019-06-26T03:49:33.961Z,22.20
2019-06-26T03:52:00.950Z,22.20
2019-06-26T03:54:28.003Z,22.20
2019-06-26T03:56:55.051Z,22.20
2019-06-26T03:59:22.120Z,22.30
2019-06-26T04:01:49.913Z,22.30
2019-06-26T04:04:16.976Z,22.30
2019-06-26T04:06:44.031Z,22.30
2019-06-26T04:09:11.116Z,22.30
2019-06-26T04:11:38.165Z,22.30
2019-06-26T04:14:05.239Z,22.30
2019-06-26T04:16:32.346Z,22.40
2019-06-26T04:18:59.322Z,22.40
2019-06-26T04:21:26.341Z,22.40
2019-06-26T04:23:53.381Z,22.40
2019-06-26T04:26:20.415Z,22.50
2019-06-26T04:28:47.836Z,22.50
2019-06-26T04:31:14.970Z,22.60
2019-06-26T04:33:41.983Z,22.70
2019-06-26T04:36:08.979Z,22.80
2019-06-26T04:38:36.332Z,22.80
2019-06-26T04:41:04.309Z,22.80
2019-06-26T04:43:31.712Z,22.90
2019-06-26T04:45:58.880Z,22.90
2019-06-26T04:48:25.933Z,22.90
2019-06-26T04:50:52.912Z,22.90
2019-06-26T04:53:19.965Z,23.00
2019-06-26T04:55:47.076Z,23.00
2019-06-26T04:58:14.104Z,23.10
2019-06-26T05:00:41.178Z,23.20
2019-06-26T05:03:08.173Z,23.20
2019-06-26T05:05:39.499Z,23.20
2019-06-26T05:08:04.161Z,23.20
2019-06-26T05:10:31.234Z,23.30
2019-06-26T05:12:58.254Z,23.40
2019-06-26T05:15:25.364Z,23.40
2019-06-26T05:17:52.373Z,23.40
2019-06-26T05:20:19.372Z,23.40
2019-06-26T05:22:46.424Z,23.40
2019-06-26T05:25:13.549Z,23.40
2019-06-26T05:27:40.580Z,23.40
2019-06-26T05:30:10.228Z,23.40
2019-06-26T05:32:37.669Z,23.50
2019-06-26T05:35:09.003Z,23.60
2019-06-26T05:37:37.135Z,23.80
2019-06-26T05:40:12.406Z,23.80
2019-06-26T05:43:01.348Z,23.90
2019-06-26T05:45:45.744Z,24.00
2019-06-26T05:48:12.857Z,24.10
2019-06-26T05:50:39.990Z,24.20
2019-06-26T05:53:07.402Z,24.30
2019-06-26T05:55:34.951Z,24.40
2019-06-26T05:58:01.970Z,24.50
2019-06-26T06:00:30.078Z,24.60
2019-06-26T06:02:57.164Z,24.70
2019-06-26T06:05:27.044Z,24.70
2019-06-26T06:07:54.446Z,24.80
2019-06-26T06:10:21.588Z,24.90
2019-06-26T06:12:48.649Z,25.10
2019-06-26T06:15:16.255Z,25.30
2019-06-26T06:17:43.443Z,25.40
2019-06-26T06:20:12.835Z,25.50
2019-06-26T06:22:39.866Z,25.60
2019-06-26T06:25:08.002Z,25.70
2019-06-26T06:27:35.631Z,25.70
2019-06-26T06:30:05.131Z,25.90
2019-06-26T06:32:32.196Z,26.10
2019-06-26T06:34:59.218Z,26.20
2019-06-26T06:37:26.237Z,26.40
2019-06-26T06:39:53.401Z,26.40
2019-06-26T06:42:22.048Z,26.30
2019-06-26T06:44:49.109Z,26.20
2019-06-26T06:47:16.198Z,26.20
2019-06-26T06:49:43.278Z,26.10
2019-06-26T06:52:10.264Z,26.00
2019-06-26T06:54:37.359Z,26.10
2019-06-26T06:57:04.752Z,26.20
2019-06-26T06:59:31.785Z,26.50
2019-06-26T07:01:59.411Z,26.70
2019-06-26T07:04:26.417Z,26.90
2019-06-26T07:06:53.444Z,26.90
2019-06-26T07:09:20.621Z,27.10
2019-06-26T07:11:47.611Z,27.30
2019-06-26T07:14:14.639Z,27.30
2019-06-26T07:16:42.032Z,27.20
2019-06-26T07:19:09.140Z,27.00
2019-06-26T07:21:36.182Z,27.00
2019-06-26T07:24:03.266Z,27.10
2019-06-26T07:26:30.311Z,27.20
2019-06-26T07:28:57.384Z,27.30
2019-06-26T07:31:24.517Z,27.40
2019-06-26T07:33:51.519Z,27.50
2019-06-26T07:36:18.571Z,27.70
2019-06-26T07:38:45.628Z,27.70
2019-06-26T07:41:12.691Z,27.80
2019-06-26T07:43:41.116Z,27.90
2019-06-26T07:46:08.186Z,28.00
2019-06-26T07:48:35.262Z,28.00
2019-06-26T07:51:02.365Z,28.20
2019-06-26T07:53:29.447Z,28.30
2019-06-26T07:55:56.438Z,28.50
2019-06-26T07:58:23.468Z,28.60
2019-06-26T08:00:50.545Z,28.60
2019-06-26T08:03:17.533Z,28.80
2019-06-26T08:05:44.569Z,28.80
2019-06-26T08:08:14.593Z,28.80
2019-06-26T08:10:41.170Z,28.80
2019-06-26T08:13:08.149Z,28.80
2019-06-26T08:15:36.204Z,28.80
2019-06-26T08:18:03.222Z,28.70
2019-06-26T08:20:30.250Z,28.60
2019-06-26T08:22:57.322Z,28.70
2019-06-26T08:25:24.389Z,28.80
2019-06-26T08:27:51.401Z,29.00
2019-06-26T08:30:18.873Z,29.10
2019-06-26T08:32:45.923Z,29.20
2019-06-26T08:35:13.073Z,29.30
2019-06-26T08:37:40.130Z,29.40
2019-06-26T08:40:08.539Z,29.50
2019-06-26T08:42:35.551Z,29.70
2019-06-26T08:45:06.087Z,29.70
2019-06-26T08:47:32.866Z,29.70
2019-06-26T08:49:59.864Z,29.80
2019-06-26T08:52:26.979Z,29.80
2019-06-26T08:54:54.015Z,29.90
2019-06-26T08:57:21.094Z,29.90
2019-06-26T08:59:48.165Z,30.10
2019-06-26T09:02:15.188Z,30.20
2019-06-26T09:04:42.199Z,30.30
2019-06-26T09:07:09.294Z,30.60
2019-06-26T09:09:36.318Z,30.60
2019-06-26T09:12:03.377Z,30.50
2019-06-26T09:14:30.421Z,30.60
2019-06-26T09:16:57.471Z,30.80
2019-06-26T09:19:24.483Z,30.80
2019-06-26T09:21:51.556Z,30.80
2019-06-26T09:24:18.603Z,30.70
2019-06-26T09:26:45.608Z,30.90
2019-06-26T09:29:12.746Z,31.10
2019-06-26T09:31:39.757Z,31.10
2019-06-26T09:34:06.782Z,31.10
2019-06-26T09:36:33.847Z,31.10
2019-06-26T09:39:00.875Z,31.30
2019-06-26T09:41:27.868Z,31.50
2019-06-26T09:43:54.952Z,31.80
2019-06-26T09:46:22.287Z,31.70
2019-06-26T09:48:53.007Z,31.70
2019-06-26T09:51:18.193Z,31.80
2019-06-26T09:53:47.668Z,31.70
2019-06-26T09:56:13.980Z,32.00
2019-06-26T09:58:41.089Z,32.00
2019-06-26T10:01:08.339Z,32.10
2019-06-26T10:03:35.431Z,32.30
2019-06-26T10:06:02.711Z,32.50
2019-06-26T10:08:29.713Z,32.40
2019-06-26T10:10:56.765Z,32.50
2019-06-26T10:13:23.819Z,32.90
2019-06-26T10:15:50.866Z,33.10
2019-06-26T10:18:17.870Z,33.20
2019-06-26T10:20:44.921Z,33.40
2019-06-26T10:23:11.924Z,33.60
2019-06-26T10:25:38.945Z,34.00
2019-06-26T10:28:06.009Z,34.10
2019-06-26T10:30:33.012Z,33.80
2019-06-26T10:33:00.787Z,33.90
2019-06-26T10:35:27.898Z,34.50
2019-06-26T10:37:55.070Z,35.30
2019-06-26T10:40:22.106Z,35.00
2019-06-26T10:42:49.317Z,35.10
2019-06-26T10:45:16.785Z,35.10
2019-06-26T10:47:44.272Z,35.20
2019-06-26T10:50:11.622Z,35.20
2019-06-26T10:52:38.601Z,34.60
2019-06-26T10:55:05.713Z,36.20
2019-06-26T10:57:32.774Z,37.80
2019-06-26T10:59:59.809Z,38.70
2019-06-26T11:02:26.810Z,40.10
2019-06-26T11:04:53.940Z,39.70
2019-06-26T11:07:20.968Z,38.90
2019-06-26T11:09:48.048Z,39.90
2019-06-26T11:12:15.095Z,40.40
2019-06-26T11:14:42.082Z,40.90
2019-06-26T11:17:09.092Z,41.30
2019-06-26T11:19:43.659Z,41.50
2019-06-26T11:22:04.922Z,41.70
2019-06-26T11:24:32.378Z,41.90
2019-06-26T11:26:59.431Z,41.40
2019-06-26T11:29:26.433Z,41.80
2019-06-26T11:31:53.447Z,41.30
2019-06-26T11:34:20.508Z,39.60
2019-06-26T11:37:02.655Z,40.30
2019-06-26T11:39:16.505Z,41.40
2019-06-26T11:41:43.675Z,42.60
2019-06-26T11:44:10.793Z,42.40
2019-06-26T11:46:38.803Z,42.70
2019-06-26T11:49:06.677Z,41.20
2019-06-26T11:51:33.792Z,42.10
2019-06-26T11:54:00.823Z,38.40
2019-06-26T11:56:27.979Z,39.50
2019-06-26T11:58:54.968Z,40.70
2019-06-26T12:01:22.074Z,42.40
2019-06-26T12:03:49.161Z,43.40
2019-06-26T12:06:19.271Z,43.30
2019-06-26T12:08:45.084Z,43.40
2019-06-26T12:11:12.141Z,42.80
2019-06-26T12:13:39.154Z,41.80
2019-06-26T12:16:06.166Z,41.80
2019-06-26T12:18:34.248Z,42.10
2019-06-26T12:21:01.375Z,43.20
2019-06-26T12:23:28.364Z,44.00
2019-06-26T12:25:55.409Z,42.70
2019-06-26T12:28:22.430Z,42.50
2019-06-26T12:30:49.469Z,41.60
2019-06-26T12:33:16.549Z,40.90
2019-06-26T12:35:43.538Z,40.10
2019-06-26T12:38:11.541Z,38.30
2019-06-26T12:40:38.649Z,40.50
2019-06-26T12:43:05.656Z,41.70
2019-06-26T12:45:32.672Z,41.90
2019-06-26T12:47:59.722Z,42.10
2019-06-26T12:50:35.460Z,39.90
2019-06-26T12:52:56.031Z,40.20
2019-06-26T12:55:23.126Z,41.40
2019-06-26T12:57:50.126Z,41.80
2019-06-26T13:00:17.522Z,41.80
2019-06-26T13:02:44.590Z,42.10
2019-06-26T13:05:12.638Z,42.10
2019-06-26T13:07:40.068Z,42.60
2019-06-26T13:10:08.613Z,42.40
2019-06-26T13:12:36.695Z,42.50
2019-06-26T13:15:08.423Z,41.90
2019-06-26T13:17:35.414Z,41.40
2019-06-26T13:20:09.491Z,40.60
2019-06-26T13:22:34.512Z,38.90
2019-06-26T13:25:01.603Z,39.60
2019-06-26T13:27:28.608Z,40.50
2019-06-26T13:29:55.822Z,37.60
2019-06-26T13:32:22.830Z,38.50
2019-06-26T13:34:49.808Z,40.10
2019-06-26T13:37:17.039Z,40.30
2019-06-26T13:39:44.055Z,40.30
2019-06-26T13:42:11.040Z,40.70
2019-06-26T13:44:38.169Z,40.70
2019-06-26T13:47:05.731Z,40.40
2019-06-26T13:49:32.731Z,39.90
2019-06-26T13:52:00.115Z,39.00
2019-06-26T13:54:27.132Z,38.10
2019-06-26T13:56:54.136Z,36.90
2019-06-26T13:59:21.220Z,36.60
2019-06-26T14:01:48.230Z,37.10
2019-06-26T14:04:15.287Z,36.70
2019-06-26T14:06:44.253Z,36.70
2019-06-26T14:09:11.301Z,36.10
2019-06-26T14:11:38.320Z,36.40
2019-06-26T14:14:05.400Z,36.30
2019-06-26T14:16:32.507Z,36.30
2019-06-26T14:18:59.531Z,36.50
2019-06-26T14:21:26.595Z,36.40
2019-06-26T14:23:53.594Z,36.20
2019-06-26T14:26:20.593Z,36.10
2019-06-26T14:28:47.670Z,35.50
2019-06-26T14:31:14.689Z,35.60
2019-06-26T14:33:41.731Z,35.60
2019-06-26T14:36:08.884Z,35.80
2019-06-26T14:38:35.899Z,35.50
2019-06-26T14:41:02.926Z,35.10
2019-06-26T14:43:29.999Z,35.00
2019-06-26T14:45:57.015Z,35.00
2019-06-26T14:48:24.455Z,35.30
2019-06-26T14:50:51.544Z,35.60
2019-06-26T14:53:20.102Z,35.70
2019-06-26T14:55:47.249Z,35.40
2019-06-26T14:58:14.340Z,35.30
2019-06-26T15:00:41.365Z,35.50
2019-06-26T15:03:08.420Z,35.90
2019-06-26T15:05:35.489Z,36.50
2019-06-26T15:08:02.543Z,36.50
2019-06-26T15:10:29.564Z,35.80
2019-06-26T15:12:57.649Z,35.80
2019-06-26T15:15:24.654Z,35.80
2019-06-26T15:17:51.656Z,35.80
2019-06-26T15:20:18.901Z,35.60
2019-06-26T15:22:47.154Z,35.80
2019-06-26T15:25:14.448Z,35.90
2019-06-26T15:27:41.512Z,35.90
2019-06-26T15:30:08.745Z,35.80
2019-06-26T15:32:35.795Z,35.70
2019-06-26T15:35:06.970Z,35.60
2019-06-26T15:37:34.001Z,35.40
2019-06-26T15:40:01.012Z,35.30
2019-06-26T15:42:28.260Z,35.30
2019-06-26T15:44:55.793Z,35.10
2019-06-26T15:47:22.840Z,34.80
2019-06-26T15:49:49.922Z,34.90
2019-06-26T15:52:17.001Z,34.80
2019-06-26T15:54:44.340Z,34.70
2019-06-26T15:57:11.427Z,34.40
2019-06-26T15:59:38.405Z,34.10
2019-06-26T16:02:05.428Z,33.80
2019-06-26T16:04:35.119Z,33.70
2019-06-26T16:07:01.314Z,33.60
2019-06-26T16:09:29.308Z,33.60
2019-06-26T16:11:58.903Z,33.90
2019-06-26T16:14:26.600Z,34.10
2019-06-26T16:16:55.849Z,33.80
2019-06-26T16:19:24.684Z,33.60
2019-06-26T16:21:52.313Z,33.40
2019-06-26T16:24:20.525Z,33.50
2019-06-26T16:26:47.786Z,33.50
2019-06-26T16:29:15.363Z,33.40
2019-06-26T16:31:42.835Z,33.60
2019-06-26T16:34:10.140Z,34.50
2019-06-26T16:36:41.085Z,35.20
2019-06-26T16:39:08.245Z,35.50
2019-06-26T16:41:35.689Z,34.90
2019-06-26T16:44:04.086Z,34.20
2019-06-26T16:46:31.273Z,34.10
2019-06-26T16:48:58.287Z,33.90
2019-06-26T16:51:25.315Z,33.80
2019-06-26T16:53:52.366Z,33.80
2019-06-26T16:56:19.679Z,33.70
2019-06-26T16:58:46.702Z,33.70
2019-06-26T17:01:13.744Z,33.70
2019-06-26T17:03:40.728Z,33.60
2019-06-26T17:06:07.766Z,33.50
2019-06-26T17:08:34.831Z,33.50
2019-06-26T17:11:01.928Z,33.40
2019-06-26T17:13:28.941Z,33.40
2019-06-26T17:15:56.001Z,33.20
2019-06-26T17:18:23.031Z,33.10
2019-06-26T17:20:50.388Z,33.10
2019-06-26T17:23:17.671Z,33.00
2019-06-26T17:25:45.005Z,32.90
2019-06-26T17:28:12.127Z,32.80
2019-06-26T17:30:39.240Z,32.60
2019-06-26T17:33:06.246Z,32.50
2019-06-26T17:35:33.267Z,32.40
2019-06-26T17:38:01.295Z,32.20
2019-06-26T17:40:28.286Z,32.10
2019-06-26T17:43:08.187Z,31.90
2019-06-26T17:45:24.179Z,31.80
2019-06-26T17:47:51.181Z,31.70
2019-06-26T17:50:18.442Z,31.60
2019-06-26T17:52:46.498Z,31.60
2019-06-26T17:55:13.526Z,31.50
2019-06-26T17:57:40.733Z,31.40
2019-06-26T18:00:09.245Z,31.40
2019-06-26T18:02:36.368Z,31.20
2019-06-26T18:05:04.919Z,31.20
2019-06-26T18:07:31.973Z,31.10
2019-06-26T18:09:59.142Z,31.00
2019-06-26T18:12:26.166Z,30.90
2019-06-26T18:14:53.221Z,30.80
2019-06-26T18:17:22.323Z,30.70
2019-06-26T18:19:53.810Z,30.70
2019-06-26T18:22:20.693Z,30.50
2019-06-26T18:24:48.325Z,30.40
2019-06-26T18:27:15.351Z,30.30
2019-06-26T18:29:42.397Z,30.20
2019-06-26T18:32:09.452Z,30.10
2019-06-26T18:34:37.679Z,30.00
2019-06-26T18:37:04.760Z,29.90
2019-06-26T18:39:32.239Z,29.80
2019-06-26T18:41:59.256Z,29.80
2019-06-26T18:44:26.333Z,29.60
2019-06-26T18:46:53.562Z,29.50
2019-06-26T18:49:21.238Z,29.50
2019-06-26T18:51:48.333Z,29.40
2019-06-26T18:54:15.315Z,29.30
2019-06-26T18:56:42.310Z,29.10
2019-06-26T18:59:09.656Z,29.00
2019-06-26T19:01:36.867Z,29.00
2019-06-26T19:04:03.942Z,28.90
2019-06-26T19:06:31.050Z,28.80
2019-06-26T19:08:58.037Z,28.80
2019-06-26T19:11:25.051Z,28.80
2019-06-26T19:13:53.395Z,28.80
2019-06-26T19:16:20.407Z,28.70
2019-06-26T19:18:47.447Z,28.60
2019-06-26T19:21:14.516Z,28.50
2019-06-26T19:23:41.575Z,28.40
2019-06-26T19:26:10.198Z,28.40
2019-06-26T19:28:37.362Z,28.30
2019-06-26T19:31:04.496Z,28.30
2019-06-26T19:33:31.715Z,28.30
2019-06-26T19:35:58.870Z,28.40
2019-06-26T19:38:25.875Z,28.40
2019-06-26T19:40:52.885Z,28.30
2019-06-26T19:43:20.388Z,28.20
2019-06-26T19:45:47.416Z,28.20
2019-06-26T19:48:14.384Z,28.10
2019-06-26T19:50:41.441Z,28.10
2019-06-26T19:53:08.491Z,28.00
2019-06-26T19:55:35.577Z,28.00
2019-06-26T19:58:02.725Z,28.00
2019-06-26T20:00:29.691Z,27.80
2019-06-26T20:02:56.712Z,27.70
2019-06-26T20:05:23.786Z,27.60
2019-06-26T20:07:50.857Z,27.50
2019-06-26T20:10:17.960Z,27.50
2019-06-26T20:12:45.455Z,27.40
2019-06-26T20:15:12.676Z,27.40
2019-06-26T20:17:39.699Z,27.40
2019-06-26T20:20:07.243Z,27.30
2019-06-26T20:22:34.318Z,27.30
2019-06-26T20:25:04.618Z,27.30
2019-06-26T20:27:31.744Z,27.20
2019-06-26T20:29:58.760Z,27.20
2019-06-26T20:32:26.576Z,27.10
2019-06-26T20:34:53.639Z,27.10
2019-06-26T20:37:20.654Z,27.10
2019-06-26T20:39:47.722Z,27.00
2019-06-26T20:42:14.782Z,27.00
2019-06-26T20:44:42.291Z,27.00
2019-06-26T20:47:09.312Z,26.90
2019-06-26T20:49:51.962Z,26.90
2019-06-26T20:52:05.178Z,26.80
2019-06-26T20:54:32.204Z,26.70
2019-06-26T20:56:59.622Z,26.70
2019-06-26T20:59:26.666Z,26.70
2019-06-26T21:01:53.809Z,26.70
2019-06-26T21:04:20.886Z,26.60
2019-06-26T21:06:47.890Z,26.60
2019-06-26T21:09:14.903Z,26.60
2019-06-26T21:11:42.047Z,26.60
2019-06-26T21:14:09.648Z,26.50
2019-06-26T21:16:37.121Z,26.60
2019-06-26T21:19:04.204Z,26.60
2019-06-26T21:21:31.943Z,26.60
2019-06-26T21:23:59.170Z,26.60
2019-06-26T21:26:26.571Z,26.70
2019-06-26T21:28:53.596Z,26.80
2019-06-26T21:31:20.678Z,26.80
2019-06-26T21:33:48.083Z,26.90
2019-06-26T21:36:27.870Z,26.90
2019-06-26T21:38:55.373Z,27.00
2019-06-26T21:41:22.837Z,27.00
2019-06-26T21:43:49.920Z,27.10
2019-06-26T21:46:17.539Z,27.00
2019-06-26T21:48:44.650Z,27.00
2019-06-26T21:51:11.781Z,27.00
2019-06-26T21:53:38.880Z,27.00
2019-06-26T21:56:26.329Z,27.00
2019-06-26T21:59:12.765Z,27.00
2019-06-26T22:01:58.066Z,26.90
2019-06-26T22:04:43.290Z,26.90
2019-06-26T22:07:23.875Z,26.80
2019-06-26T22:10:02.705Z,26.80
2019-06-26T22:12:31.588Z,26.70
2019-06-26T22:14:58.649Z,26.60
2019-06-26T22:17:26.302Z,26.60
2019-06-26T22:19:53.675Z,26.60
2019-06-26T22:22:21.204Z,26.50
2019-06-26T22:24:48.300Z,26.40
2019-06-26T22:27:16.059Z,26.40
2019-06-26T22:29:44.454Z,26.40
2019-06-26T22:32:14.155Z,26.40
2019-06-26T22:34:41.142Z,26.40
2019-06-26T22:37:08.415Z,26.40
2019-06-26T22:39:35.458Z,26.50
2019-06-26T22:42:02.802Z,26.50
2019-06-26T22:44:29.800Z,26.50
2019-06-26T22:46:56.922Z,26.50
2019-06-26T22:49:23.936Z,26.50
2019-06-26T22:51:50.954Z,26.50
2019-06-26T22:54:19.903Z,26.40
2019-06-26T22:56:47.223Z,26.50
2019-06-26T22:59:14.677Z,26.50
2019-06-26T23:01:42.120Z,26.40
2019-06-26T23:04:09.882Z,26.40
2019-06-26T23:06:37.591Z,26.40
2019-06-26T23:09:06.148Z,26.30
2019-06-26T23:11:33.567Z,26.30
2019-06-26T23:14:01.120Z,26.40
2019-06-26T23:16:39.050Z,26.40
2019-06-26T23:19:06.168Z,26.40
2019-06-26T23:21:33.231Z,26.20
2019-06-26T23:24:00.462Z,26.10
2019-06-26T23:26:27.463Z,26.10
2019-06-26T23:28:54.569Z,26.00
2019-06-26T23:31:21.608Z,26.00
2019-06-26T23:33:49.389Z,25.90
2019-06-26T23:36:17.300Z,26.00
2019-06-26T23:38:44.727Z,26.10
2019-06-26T23:41:11.741Z,26.10
2019-06-26T23:43:38.852Z,26.10
2019-06-26T23:46:05.931Z,26.10
2019-06-26T23:48:33.570Z,26.00
2019-06-26T23:51:02.888Z,26.00
2019-06-26T23:53:29.942Z,25.90
2019-06-26T23:55:56.974Z,25.90
2019-06-26T23:58:24.527Z,25.90
